Time;durP1;ratioP1;P1;durP2;ratioP2;P2;SDS_P1;SDS_P2;PMS_P1;PMS_P2;Temp;Humidity;BMP_temperature;BMP_pressure;BME280_temperature;BME280_humidity;BME280_pressure;Samples;Min_cycle;Max_cycle;Signal;HPM_P1;HPM_P2
2022/10/09 00:01:20;;;;;;;13.75;3.85;;;10.10;99.90;;;;;;5094192;28;20080;-76
2022/10/09 00:03:49;;;;;;;11.05;3.60;;;9.90;99.90;;;;;;5059145;28;20124;-75
2022/10/09 00:06:21;;;;;;;12.68;3.30;;;9.90;99.90;;;;;;5114459;28;20442;-76
2022/10/09 00:08:46;;;;;;;11.10;3.67;;;10.90;99.90;;;;;;5092786;28;20134;-75
2022/10/09 00:11:25;;;;;;;10.02;3.83;;;10.70;99.90;;;;;;5112146;28;20122;-76
2022/10/09 00:13:52;;;;;;;10.20;3.42;;;9.80;99.90;;;;;;5114668;28;20177;-75
2022/10/09 00:16:19;;;;;;;11.00;3.60;;;9.90;99.90;;;;;;5114061;28;20038;-75
2022/10/09 00:18:46;;;;;;;11.35;4.03;;;9.90;99.90;;;;;;5096167;28;20048;-75
2022/10/09 00:21:27;;;;;;;16.95;3.80;;;9.90;99.90;;;;;;5095811;28;20430;-76
2022/10/09 00:23:55;;;;;;;10.18;4.13;;;9.80;99.90;;;;;;5112828;28;20036;-76
2022/10/09 00:26:21;;;;;;;8.73;3.15;;;9.90;99.90;;;;;;5111728;28;20039;-76
2022/10/09 00:28:48;;;;;;;11.75;3.60;;;10.90;99.90;;;;;;5113270;28;20036;-75
2022/10/09 00:31:14;;;;;;;10.55;3.38;;;9.80;99.90;;;;;;5112877;28;20047;-75
2022/10/09 00:33:40;;;;;;;9.75;3.55;;;10.40;99.90;;;;;;5113647;28;20488;-76
2022/10/09 00:36:09;;;;;;;13.75;3.75;;;9.80;99.90;;;;;;5103974;28;20127;-75
2022/10/09 00:38:35;;;;;;;8.63;3.65;;;9.80;99.90;;;;;;5084162;28;20083;-75
2022/10/09 00:41:01;;;;;;;8.98;3.40;;;9.80;99.90;;;;;;5091845;28;20136;-75
2022/10/09 00:43:47;;;;;;;13.23;3.40;;;11.00;99.90;;;;;;5092931;28;20492;-75
2022/10/09 00:46:19;;;;;;;11.85;3.70;;;9.80;99.90;;;;;;5074441;28;20079;-75
2022/10/09 00:48:49;;;;;;;8.32;3.60;;;9.80;99.90;;;;;;5101494;28;20094;-75
2022/10/09 00:51:15;;;;;;;8.88;3.45;;;10.30;99.90;;;;;;5092230;28;20051;-75
2022/10/09 00:53:40;;;;;;;12.40;3.40;;;10.80;99.90;;;;;;5093989;28;20549;-75
2022/10/09 00:56:06;;;;;;;11.45;3.40;;;10.50;99.90;;;;;;5084920;28;20550;-75
2022/10/09 00:58:32;;;;;;;14.82;3.60;;;9.70;99.90;;;;;;5074683;28;20460;-75
2022/10/09 01:00:57;;;;;;;11.45;3.88;;;9.60;99.90;;;;;;5074648;28;20059;-75
2022/10/09 01:03:23;;;;;;;14.65;3.88;;;9.80;99.90;;;;;;5094051;28;20032;-75
2022/10/09 01:06:03;;;;;;;10.35;3.67;;;9.80;99.90;;;;;;5108281;28;20173;-75
2022/10/09 01:08:37;;;;;;;10.75;3.53;;;9.70;99.90;;;;;;5103945;28;20396;-75
2022/10/09 01:11:18;;;;;;;12.32;3.58;;;9.70;99.90;;;;;;5092429;28;20131;-75
2022/10/09 01:13:53;;;;;;;12.07;3.85;;;9.70;99.90;;;;;;5091510;28;20147;-74
2022/10/09 01:16:29;;;;;;;8.50;3.38;;;10.00;99.90;;;;;;5092386;28;20044;-75
2022/10/09 01:19:20;;;;;;;11.68;3.60;;;9.60;99.90;;;;;;5092546;28;20044;-75
2022/10/09 01:21:57;;;;;;;12.15;4.25;;;9.60;99.90;;;;;;5057640;28;20392;-75
2022/10/09 01:24:31;;;;;;;13.43;3.63;;;9.60;99.90;;;;;;5091286;28;20040;-75
2022/10/09 01:27:18;;;;;;;9.25;3.38;;;9.50;99.90;;;;;;5107628;28;20039;-75
2022/10/09 01:29:48;;;;;;;9.90;3.53;;;10.10;99.90;;;;;;5113255;28;20046;-75
2022/10/09 01:32:20;;;;;;;15.45;3.70;;;9.50;99.90;;;;;;5094610;28;20361;-75
2022/10/09 01:34:46;;;;;;;13.43;3.90;;;9.70;99.90;;;;;;5112628;28;20055;-74
2022/10/09 01:37:14;;;;;;;12.80;3.65;;;9.40;99.90;;;;;;5094297;28;20086;-75
2022/10/09 01:39:41;;;;;;;11.43;3.95;;;9.40;99.90;;;;;;5112945;28;20039;-74
2022/10/09 01:42:08;;;;;;;9.25;3.25;;;10.50;99.90;;;;;;5111549;28;20096;-75
2022/10/09 01:44:34;;;;;;;12.50;3.53;;;9.40;99.90;;;;;;5112258;28;20232;-75
2022/10/09 01:47:00;;;;;;;11.40;3.85;;;10.20;99.90;;;;;;5103447;28;20111;-75
2022/10/09 01:49:35;;;;;;;12.57;4.28;;;9.40;99.90;;;;;;5082959;28;20388;-75
2022/10/09 01:52:00;;;;;;;15.50;3.60;;;10.30;99.90;;;;;;5091416;28;20066;-75
2022/10/09 01:54:35;;;;;;;10.35;3.47;;;9.30;99.90;;;;;;5073902;28;20044;-74
2022/10/09 01:57:05;;;;;;;11.13;4.40;;;9.30;99.90;;;;;;5085548;28;20040;-75
2022/10/09 01:59:36;;;;;;;11.40;4.00;;;9.20;99.90;;;;;;5091539;28;20052;-75
2022/10/09 02:02:03;;;;;;;11.20;3.75;;;9.40;99.90;;;;;;5055463;28;20138;-75
2022/10/09 02:04:29;;;;;;;10.90;3.78;;;9.20;99.90;;;;;;5091038;28;20044;-75
2022/10/09 02:06:55;;;;;;;10.10;3.83;;;9.50;99.90;;;;;;5076929;28;20036;-75
2022/10/09 02:09:22;;;;;;;7.72;3.65;;;10.30;99.90;;;;;;5093315;28;20032;-75
2022/10/09 02:11:54;;;;;;;10.10;3.70;;;10.30;99.90;;;;;;5068740;28;20048;-74
2022/10/09 02:14:20;;;;;;;11.93;3.63;;;10.00;99.90;;;;;;5093210;28;20044;-75
2022/10/09 02:16:48;;;;;;;12.95;4.00;;;9.10;99.90;;;;;;5084431;28;20063;-74
2022/10/09 02:19:17;;;;;;;10.80;4.00;;;9.90;99.90;;;;;;5091851;28;20048;-75
2022/10/09 02:21:54;;;;;;;10.30;4.00;;;9.10;99.90;;;;;;5073631;28;20365;-75
2022/10/09 02:24:22;;;;;;;15.45;3.97;;;9.00;99.90;;;;;;5111768;28;20048;-75
2022/10/09 02:26:48;;;;;;;11.18;3.70;;;9.00;99.90;;;;;;5093415;28;20043;-74
2022/10/09 02:29:14;;;;;;;11.70;4.10;;;9.80;99.90;;;;;;5074668;28;20036;-75
2022/10/09 02:31:42;;;;;;;9.70;3.90;;;9.90;99.90;;;;;;5092592;28;20393;-74
2022/10/09 02:34:10;;;;;;;14.30;4.30;;;9.00;99.90;;;;;;5112158;28;20047;-75
2022/10/09 02:36:37;;;;;;;16.42;3.92;;;9.00;99.90;;;;;;5111711;28;20047;-74
2022/10/09 02:39:05;;;;;;;10.68;4.00;;;10.10;99.90;;;;;;5112276;28;20039;-74
2022/10/09 02:41:31;;;;;;;8.98;3.83;;;9.00;99.90;;;;;;5093522;28;20044;-75
2022/10/09 02:43:57;;;;;;;12.68;3.97;;;10.00;99.90;;;;;;5112081;28;20397;-74
2022/10/09 02:46:23;;;;;;;11.18;4.40;;;9.50;99.90;;;;;;5111644;28;20048;-74
2022/10/09 02:48:49;;;;;;;11.32;4.30;;;8.90;99.90;;;;;;5112041;28;20058;-75
2022/10/09 02:51:15;;;;;;;12.60;4.32;;;8.90;99.90;;;;;;5092741;28;20051;-74
2022/10/09 02:53:41;;;;;;;12.95;4.10;;;8.90;99.90;;;;;;5111078;28;20411;-75
2022/10/09 02:56:06;;;;;;;9.48;4.25;;;9.50;99.90;;;;;;5097078;28;20047;-75
2022/10/09 02:58:33;;;;;;;10.70;4.15;;;8.80;99.90;;;;;;5115707;28;20152;-74
2022/10/09 03:00:59;;;;;;;12.13;4.05;;;8.80;99.90;;;;;;5107551;28;20036;-75
2022/10/09 03:03:25;;;;;;;12.55;4.30;;;8.80;99.90;;;;;;5095102;28;20338;-74
2022/10/09 03:06:08;;;;;;;13.63;4.40;;;9.20;99.90;;;;;;5075436;28;20040;-75
2022/10/09 03:08:35;;;;;;;10.35;4.07;;;8.80;99.90;;;;;;5096393;28;20388;-74
2022/10/09 03:11:00;;;;;;;8.30;3.95;;;8.80;99.90;;;;;;5094562;28;20762;-74
2022/10/09 03:13:26;;;;;;;14.40;4.18;;;9.30;99.90;;;;;;5060209;28;20044;-74
2022/10/09 03:15:52;;;;;;;9.82;4.40;;;8.70;99.90;;;;;;5074695;28;20040;-74
2022/10/09 03:18:17;;;;;;;11.75;4.20;;;8.70;99.90;;;;;;5093644;28;20119;-75
2022/10/09 03:20:43;;;;;;;15.02;5.03;;;8.70;99.90;;;;;;5095662;28;20036;-74
2022/10/09 03:23:09;;;;;;;9.68;4.28;;;8.80;99.90;;;;;;5092699;28;20028;-74
2022/10/09 03:25:34;;;;;;;12.57;4.20;;;8.60;99.90;;;;;;5094641;28;20107;-74
2022/10/09 03:28:00;;;;;;;8.02;4.10;;;8.60;99.90;;;;;;5094673;28;20032;-74
2022/10/09 03:30:25;;;;;;;8.40;4.05;;;8.60;99.90;;;;;;5094898;28;20036;-74
2022/10/09 03:32:51;;;;;;;10.65;3.90;;;8.60;99.90;;;;;;5077613;28;20056;-75
2022/10/09 03:35:17;;;;;;;11.40;3.80;;;8.60;99.90;;;;;;5081053;28;20036;-74
2022/10/09 03:37:42;;;;;;;13.30;4.30;;;8.60;99.90;;;;;;5094065;28;20044;-74
2022/10/09 03:40:08;;;;;;;11.10;4.75;;;8.50;99.90;;;;;;5076046;28;20052;-75
2022/10/09 03:42:34;;;;;;;15.70;4.63;;;8.50;99.90;;;;;;5066523;28;20055;-74
2022/10/09 03:45:03;;;;;;;10.23;4.68;;;8.50;99.90;;;;;;5078633;28;20404;-75
2022/10/09 03:47:32;;;;;;;11.68;5.05;;;8.50;99.90;;;;;;5099019;28;20084;-74
2022/10/09 03:49:57;;;;;;;16.05;4.82;;;8.50;99.90;;;;;;5094611;28;20044;-74
2022/10/09 03:52:23;;;;;;;11.68;5.00;;;8.60;99.90;;;;;;5058865;28;20047;-74
2022/10/09 03:54:48;;;;;;;13.15;4.90;;;8.70;99.90;;;;;;5092899;28;20064;-74
2022/10/09 03:57:14;;;;;;;9.82;5.05;;;8.60;99.90;;;;;;5096878;28;20090;-74
2022/10/09 03:59:40;;;;;;;14.65;5.32;;;8.60;99.90;;;;;;5114429;28;20043;-74
2022/10/09 04:02:05;;;;;;;12.55;5.55;;;8.60;99.90;;;;;;5110615;28;20027;-74
2022/10/09 04:04:31;;;;;;;11.77;5.80;;;8.50;99.90;;;;;;5080300;28;20099;-75
2022/10/09 04:06:57;;;;;;;14.02;5.90;;;8.50;99.90;;;;;;5113426;28;20043;-74
2022/10/09 04:09:22;;;;;;;14.23;5.70;;;8.50;99.90;;;;;;5096292;28;20039;-75
2022/10/09 04:11:48;;;;;;;14.38;5.72;;;8.50;99.90;;;;;;5113031;28;20499;-74
2022/10/09 04:14:13;;;;;;;14.90;6.53;;;8.40;99.90;;;;;;5079732;28;20137;-74
2022/10/09 04:16:39;;;;;;;17.38;6.50;;;8.40;99.90;;;;;;5094406;28;20445;-74
2022/10/09 04:19:05;;;;;;;14.43;6.30;;;8.40;99.90;;;;;;5093237;28;20532;-74
2022/10/09 04:21:32;;;;;;;12.10;6.65;;;8.40;99.90;;;;;;5113344;28;20039;-74
2022/10/09 04:23:58;;;;;;;14.30;7.10;;;8.40;99.90;;;;;;5095863;28;20056;-74
2022/10/09 04:26:23;;;;;;;12.55;7.15;;;8.40;99.90;;;;;;5078400;28;20043;-75
2022/10/09 04:28:49;;;;;;;11.52;7.30;;;8.30;99.90;;;;;;5096940;28;20477;-74
2022/10/09 04:31:15;;;;;;;11.57;6.88;;;8.30;99.90;;;;;;5093098;28;20089;-74
2022/10/09 04:33:40;;;;;;;13.93;6.93;;;8.30;99.90;;;;;;5093058;28;20504;-74
2022/10/09 04:36:06;;;;;;;19.20;7.90;;;8.30;99.90;;;;;;5093085;28;20052;-74
2022/10/09 04:38:32;;;;;;;13.73;6.88;;;8.30;99.90;;;;;;5108657;28;20076;-74
2022/10/09 04:41:05;;;;;;;16.98;7.22;;;8.30;99.90;;;;;;5095537;28;20040;-74
2022/10/09 04:43:33;;;;;;;16.55;7.45;;;8.30;99.90;;;;;;5094800;28;20115;-75
2022/10/09 04:46:02;;;;;;;13.32;7.47;;;8.20;99.90;;;;;;5075274;28;20048;-74
2022/10/09 04:48:27;;;;;;;17.85;6.95;;;8.20;99.90;;;;;;5093024;28;20101;-74
2022/10/09 04:50:53;;;;;;;15.35;7.13;;;8.20;99.90;;;;;;5092966;28;20398;-74
2022/10/09 04:53:18;;;;;;;16.75;7.78;;;8.30;99.90;;;;;;5109192;28;20040;-74
2022/10/09 04:55:44;;;;;;;15.05;7.65;;;8.30;99.90;;;;;;5089380;28;20044;-75
2022/10/09 04:58:11;;;;;;;15.95;7.70;;;8.20;99.90;;;;;;5093069;28;20110;-74
2022/10/09 05:00:42;;;;;;;20.95;8.07;;;8.30;99.90;;;;;;5074756;28;20032;-74
2022/10/09 05:03:08;;;;;;;16.70;8.10;;;8.30;99.90;;;;;;5077812;28;20119;-74
2022/10/09 05:05:34;;;;;;;13.88;7.15;;;8.20;99.90;;;;;;5073695;28;20044;-74
2022/10/09 05:07:59;;;;;;;15.10;7.85;;;8.20;99.90;;;;;;5074591;28;20047;-74
2022/10/09 05:10:25;;;;;;;18.58;8.38;;;8.20;99.90;;;;;;5059124;28;20404;-74
2022/10/09 05:12:50;;;;;;;16.90;7.57;;;8.20;99.90;;;;;;5092374;28;20131;-74
2022/10/09 05:15:17;;;;;;;17.52;8.07;;;8.20;99.90;;;;;;5108628;28;20042;-74
2022/10/09 05:17:43;;;;;;;13.75;8.13;;;8.20;99.90;;;;;;5083564;28;20070;-74
2022/10/09 05:20:09;;;;;;;14.32;7.75;;;8.50;99.90;;;;;;5092524;28;20392;-74
2022/10/09 05:22:34;;;;;;;15.10;8.70;;;8.20;99.90;;;;;;5091402;28;20039;-74
2022/10/09 05:25:00;;;;;;;15.85;7.55;;;8.20;99.90;;;;;;5094875;28;20055;-74
2022/10/09 05:27:25;;;;;;;22.00;8.02;;;8.20;99.90;;;;;;5092670;28;20441;-74
2022/10/09 05:29:51;;;;;;;18.67;8.65;;;8.90;99.90;;;;;;5111338;28;20110;-74
2022/10/09 05:32:17;;;;;;;14.23;7.95;;;8.10;99.90;;;;;;5097437;28;20496;-74
2022/10/09 05:34:42;;;;;;;16.88;8.60;;;8.10;99.90;;;;;;5074030;28;20102;-74
2022/10/09 05:37:08;;;;;;;17.23;8.10;;;8.10;99.90;;;;;;5093695;28;20500;-74
2022/10/09 05:39:34;;;;;;;12.55;8.18;;;8.10;99.90;;;;;;5077632;28;20054;-74
2022/10/09 05:42:01;;;;;;;15.73;7.97;;;8.10;99.90;;;;;;5072728;28;20112;-74
2022/10/09 05:44:26;;;;;;;12.20;7.75;;;8.10;99.90;;;;;;5091222;28;20042;-74
2022/10/09 05:46:52;;;;;;;14.38;8.18;;;8.10;99.90;;;;;;5074758;28;20130;-74
2022/10/09 05:49:18;;;;;;;14.85;7.85;;;8.10;99.90;;;;;;5108755;28;20051;-74
2022/10/09 05:51:44;;;;;;;14.95;7.18;;;8.10;99.90;;;;;;5092001;28;20032;-74
2022/10/09 05:54:14;;;;;;;16.30;7.70;;;8.10;99.90;;;;;;5092252;28;20063;-74
2022/10/09 05:56:40;;;;;;;16.38;8.45;;;8.10;99.90;;;;;;5075872;28;20044;-74
2022/10/09 05:59:12;;;;;;;13.05;8.27;;;8.80;99.90;;;;;;5108576;28;20080;-74
2022/10/09 06:01:40;;;;;;;19.77;7.93;;;8.10;99.90;;;;;;5098955;28;20051;-74
2022/10/09 06:04:10;;;;;;;16.63;8.15;;;8.10;99.90;;;;;;5079483;28;20104;-74
2022/10/09 06:06:37;;;;;;;13.85;8.35;;;8.10;99.90;;;;;;5091523;28;20123;-74
2022/10/09 06:09:04;;;;;;;14.32;8.32;;;8.10;99.90;;;;;;5091734;28;20136;-74
2022/10/09 06:11:33;;;;;;;16.83;8.05;;;8.10;99.90;;;;;;5092006;28;20039;-74
2022/10/09 06:14:00;;;;;;;17.50;7.85;;;8.10;99.90;;;;;;5096450;28;20046;-74
2022/10/09 06:16:31;;;;;;;14.00;7.88;;;8.10;99.90;;;;;;5108445;28;20061;-74
2022/10/09 06:18:57;;;;;;;17.77;7.82;;;8.10;99.90;;;;;;5110481;28;20092;-74
2022/10/09 06:21:25;;;;;;;14.00;8.13;;;9.00;99.90;;;;;;5106019;28;20043;-74
2022/10/09 06:23:52;;;;;;;17.33;8.10;;;8.10;99.90;;;;;;5090729;28;20046;-74
2022/10/09 06:26:19;;;;;;;14.27;7.22;;;8.20;99.90;;;;;;5107413;28;20043;-75
2022/10/09 06:28:46;;;;;;;11.52;6.97;;;9.20;99.90;;;;;;5093234;28;20134;-75
2022/10/09 06:31:15;;;;;;;14.80;7.68;;;9.20;99.90;;;;;;5094320;28;20067;-76
2022/10/09 06:33:42;;;;;;;16.30;7.38;;;8.20;99.90;;;;;;5115959;28;20044;-76
2022/10/09 06:36:13;;;;;;;14.05;7.40;;;8.30;99.90;;;;;;5097562;28;20046;-76
2022/10/09 06:38:39;;;;;;;11.73;7.15;;;8.30;99.90;;;;;;5104677;28;20526;-75
2022/10/09 06:41:07;;;;;;;14.48;6.65;;;8.40;99.90;;;;;;5113089;28;20399;-76
2022/10/09 06:43:33;;;;;;;14.15;6.20;;;8.40;99.90;;;;;;5080627;28;20036;-76
2022/10/09 06:46:00;;;;;;;15.07;6.65;;;8.70;99.90;;;;;;5097589;28;20357;-76
2022/10/09 06:48:29;;;;;;;15.10;6.35;;;8.90;99.90;;;;;;5116396;28;20458;-76
2022/10/09 06:50:59;;;;;;;11.93;6.03;;;10.00;99.90;;;;;;5096711;28;20067;-76
2022/10/09 06:53:24;;;;;;;13.00;6.22;;;9.30;99.90;;;;;;5095679;28;20048;-76
2022/10/09 06:55:52;;;;;;;13.40;6.03;;;10.80;99.90;;;;;;5094783;28;20173;-76
2022/10/09 06:58:18;;;;;;;13.57;5.80;;;9.40;99.90;;;;;;5095478;28;20051;-76
2022/10/09 07:00:44;;;;;;;14.00;5.78;;;9.40;99.90;;;;;;5096405;28;20050;-76
2022/10/09 07:03:09;;;;;;;10.48;5.70;;;9.30;99.90;;;;;;5060395;28;20400;-77
2022/10/09 07:05:35;;;;;;;13.98;5.80;;;9.40;99.90;;;;;;5095465;28;20052;-76
2022/10/09 07:08:00;;;;;;;10.80;5.30;;;9.50;99.90;;;;;;5077040;28;20485;-76
2022/10/09 07:10:26;;;;;;;11.18;6.18;;;9.60;99.90;;;;;;5100184;28;20134;-76
2022/10/09 07:12:52;;;;;;;17.17;6.97;;;9.60;99.90;;;;;;5092409;28;20051;-76
2022/10/09 07:15:17;;;;;;;10.63;6.60;;;9.70;99.90;;;;;;5088102;28;20451;-76
2022/10/09 07:17:43;;;;;;;13.25;7.80;;;9.80;99.90;;;;;;5095271;28;20145;-76
2022/10/09 07:20:08;;;;;;;14.65;8.50;;;9.90;99.90;;;;;;5077041;28;20048;-76
2022/10/09 07:22:34;;;;;;;17.08;8.88;;;9.90;99.90;;;;;;5094897;28;20051;-76
2022/10/09 07:25:00;;;;;;;17.42;8.88;;;10.00;99.90;;;;;;5095207;28;20567;-76
2022/10/09 07:27:25;;;;;;;15.82;9.55;;;10.00;99.90;;;;;;5075647;28;20040;-76
2022/10/09 07:29:51;;;;;;;15.98;10.15;;;10.80;99.90;;;;;;5094559;28;20036;-76
2022/10/09 07:32:17;;;;;;;15.27;10.07;;;10.20;99.90;;;;;;5094490;28;20074;-76
2022/10/09 07:34:42;;;;;;;19.80;10.90;;;11.40;99.90;;;;;;5094784;28;20044;-77
2022/10/09 07:37:08;;;;;;;16.73;11.05;;;10.20;99.90;;;;;;5094739;28;20051;-76
2022/10/09 07:39:34;;;;;;;17.58;10.88;;;10.20;99.90;;;;;;5093961;28;20427;-77
2022/10/09 07:42:00;;;;;;;17.77;11.50;;;10.50;99.90;;;;;;5092352;28;20040;-77
2022/10/09 07:44:26;;;;;;;18.80;11.55;;;11.10;99.90;;;;;;5095745;28;20039;-77
2022/10/09 07:46:52;;;;;;;20.35;11.38;;;13.10;99.90;;;;;;5114429;28;20433;-77
2022/10/09 07:49:17;;;;;;;17.83;9.52;;;12.60;99.90;;;;;;5115282;28;20073;-76
2022/10/09 07:51:44;;;;;;;12.60;9.13;;;;;;;;;;5109067;28;20119;-76
2022/10/09 07:54:10;;;;;;;12.95;8.45;;;;;;;;;;5113789;28;20048;-76
2022/10/09 07:56:39;;;;;;;15.23;7.75;;;;;;;;;;5096075;28;20042;-76
2022/10/09 07:59:07;;;;;;;12.15;7.00;;;;;;;;;;5092670;28;20046;-76
2022/10/09 08:01:34;;;;;;;11.32;6.68;;;;;;;;;;5093819;28;20048;-76
2022/10/09 08:04:00;;;;;;;11.85;6.40;;;;;;;;;;5059605;28;20173;-76
2022/10/09 08:06:26;;;;;;;12.65;5.40;;;;;;;;;;5092778;28;20131;-77
2022/10/09 08:08:53;;;;;;;11.27;5.90;;;;;;;;;;5094088;28;20040;-76
2022/10/09 08:11:20;;;;;;;11.00;5.57;;;;;;;;;;5075624;28;20082;-78
2022/10/09 08:13:46;;;;;;;11.00;5.10;;;;;;;;;;5077031;28;20468;-78
2022/10/09 08:16:13;;;;;;;9.90;4.55;;;;;;;;;;5094320;28;20139;-78
2022/10/09 08:18:39;;;;;;;11.15;4.60;;;;;;;;;;5075864;28;20075;-79
2022/10/09 08:21:06;;;;;;;10.98;4.63;;;;;;;;;;5093470;28;20055;-79
2022/10/09 08:23:32;;;;;;;6.80;4.07;;;;;;;;;;5058439;28;20032;-79
2022/10/09 08:25:58;;;;;;;10.27;4.45;;;;;;;;;;5093711;28;20047;-79
2022/10/09 08:28:24;;;;;;;9.55;3.53;;;;;;;;;;5094722;28;20500;-79
2022/10/09 08:30:50;;;;;;;8.00;3.75;;;;;;;;;;5075246;28;20047;-79
2022/10/09 08:33:22;;;;;;;10.55;3.67;;;;;;;;;;5093286;28;20416;-79
2022/10/09 08:35:51;;;;;;;10.65;3.65;;;;;;;;;;5094555;28;20116;-79
2022/10/09 08:38:19;;;;;;;8.10;3.45;;;;;;;;;;5093627;28;20044;-78
2022/10/09 08:41:01;;;;;;;8.25;3.28;;;;;;;;;;5093128;28;20047;-78
2022/10/09 08:43:30;;;;;;;6.57;3.25;;;;;;;;;;5088350;28;20439;-78
2022/10/09 08:45:57;;;;;;;9.02;3.20;;;;;;;;;;5111590;28;20059;-78
2022/10/09 08:48:24;;;;;;;10.38;3.50;;;;;;;;;;5114070;28;20039;-78
2022/10/09 08:50:52;;;;;;;7.28;3.20;;;;;;;;;;5113509;28;20047;-78
2022/10/09 08:53:44;;;;;;;10.73;3.28;;;;;;;;;;5094800;28;20079;-78
2022/10/09 08:56:12;;;;;;;8.60;2.88;;;;;;;;;;5093274;28;20059;-78
2022/10/09 08:58:39;;;;;;;9.52;3.03;;;;;;;;;;5113347;28;20043;-78
2022/10/09 09:01:24;;;;;;;5.75;2.50;;;;;;;;;;5113462;28;20368;-79
2022/10/09 09:03:59;;;;;;;6.60;2.55;;;;;;;;;;5094917;28;20039;-78
2022/10/09 09:06:38;;;;;;;7.27;2.80;;;;;;;;;;5094715;28;20052;-79
2022/10/09 09:09:04;;;;;;;9.40;2.72;;;;;;;;;;5078478;28;20062;-79
2022/10/09 09:11:30;;;;;;;7.07;2.90;;;;;;;;;;5077847;28;20040;-78
2022/10/09 09:14:11;;;;;;;6.57;2.55;;;;;;;;;;5111715;28;20085;-78
2022/10/09 09:16:49;;;;;;;8.13;2.60;;;;;;;;;;5105395;28;20044;-79
2022/10/09 09:19:23;;;;;;;8.93;2.78;;;;;;;;;;5091415;28;20066;-78
2022/10/09 09:21:50;;;;;;;8.75;2.47;;;;;;;;;;5084663;28;20053;-79
2022/10/09 09:24:20;;;;;;;8.43;2.58;;;;;;;;;;5113265;28;20067;-87
2022/10/09 09:26:50;;;;;;;6.43;2.38;;;;;;;;;;5114109;28;20048;-87
2022/10/09 09:29:20;;;;;;;4.75;2.35;;;;;;;;;;5113591;28;20047;-87
2022/10/09 09:31:46;;;;;;;7.40;2.63;;;;;;;;;;5095376;28;20043;-87
2022/10/09 09:34:33;;;;;;;8.73;2.65;;;;;;;;;;5113289;28;20055;-87
2022/10/09 09:37:00;;;;;;;7.50;2.20;;;;;;;;;;5106344;28;20345;-83
2022/10/09 09:39:28;;;;;;;10.45;2.30;;;;;;;;;;5092384;28;20089;-81
2022/10/09 09:42:00;;;;;;;6.85;2.28;;;;;;;;;;5096909;28;20040;-79
2022/10/09 09:44:28;;;;;;;7.28;2.42;;;;;;;;;;5112810;28;20376;-79
2022/10/09 09:46:54;;;;;;;6.50;2.00;;;;;;;;;;5098628;28;20048;-80
2022/10/09 09:49:26;;;;;;;7.38;2.40;;;;;;;;;;5092276;28;20126;-81
2022/10/09 09:51:53;;;;;;;9.75;2.15;;;;;;;;;;5086698;28;20378;-79
2022/10/09 09:54:23;;;;;;;9.02;2.20;;;;;;;;;;5090842;28;20489;-79
2022/10/09 09:56:51;;;;;;;6.25;2.15;;;;;;;;;;5091842;28;20067;-75
2022/10/09 09:59:46;;;;;;;6.40;2.03;;;;;;;;;;5092478;28;20051;-77
2022/10/09 10:02:12;;;;;;;10.00;2.22;;;;;;;;;;5070530;28;20044;-79
2022/10/09 10:04:47;;;;;;;8.00;2.25;;;;;;;;;;5093562;28;20048;-79
2022/10/09 10:07:13;;;;;;;5.95;2.30;;;;;;;;;;5098552;28;20033;-78
2022/10/09 10:09:39;;;;;;;8.80;2.67;;;;;;;;;;5110279;28;20058;-79
2022/10/09 10:12:06;;;;;;;8.63;2.00;;;;;;;;;;5093551;28;20039;-79
2022/10/09 10:14:32;;;;;;;6.05;2.33;;;;;;;;;;5094348;28;20055;-79
2022/10/09 10:16:59;;;;;;;11.02;2.15;;;;;;;;;;5104101;28;20036;-79
2022/10/09 10:19:28;;;;;;;7.38;2.35;;;;;;;;;;5092023;28;20044;-79
2022/10/09 10:22:01;;;;;;;8.02;2.20;;;;;;;;;;5073814;28;20055;-79
2022/10/09 10:24:30;;;;;;;7.70;2.50;;;;;;;;;;5057061;28;20048;-79
2022/10/09 10:26:59;;;;;;;8.68;2.40;;;;;;;;;;5091355;28;20376;-79
2022/10/09 10:29:33;;;;;;;5.38;2.05;;;13.00;99.90;;;;;;5073722;28;20085;-79
2022/10/09 10:32:14;;;;;;;7.05;2.20;;;22.10;99.20;;;;;;5073853;28;20079;-80
2022/10/09 10:34:55;;;;;;;6.68;2.13;;;22.40;99.40;;;;;;5091560;28;20420;-80
2022/10/09 10:37:28;;;;;;;9.70;2.40;;;22.50;98.50;;;;;;5091401;28;20044;-79
2022/10/09 10:40:18;;;;;;;9.13;2.35;;;22.90;96.70;;;;;;5090513;28;20051;-80
2022/10/09 10:43:02;;;;;;;9.70;2.35;;;22.80;97.10;;;;;;5039169;28;20416;-78
2022/10/09 10:45:33;;;;;;;9.23;2.38;;;22.70;97.20;;;;;;5091439;28;20135;-79
2022/10/09 10:48:01;;;;;;;10.52;2.65;;;23.10;96.60;;;;;;5091563;28;20052;-79
2022/10/09 10:50:35;;;;;;;8.93;2.20;;;23.60;95.40;;;;;;5091347;28;20097;-79
2022/10/09 10:53:04;;;;;;;11.32;2.40;;;23.50;95.30;;;;;;5073188;28;20496;-78
2022/10/09 10:55:36;;;;;;;6.82;2.47;;;23.20;96.10;;;;;;5091252;28;20048;-79
2022/10/09 10:58:20;;;;;;;7.25;2.08;;;24.10;95.40;;;;;;5091201;28;20493;-80
2022/10/09 11:01:12;;;;;;;7.10;2.03;;;24.20;95.00;;;;;;5091201;28;20073;-80
2022/10/09 11:03:44;;;;;;;6.28;2.30;;;24.40;94.10;;;;;;5039620;28;20056;-79
2022/10/09 11:06:27;;;;;;;8.18;2.30;;;25.10;93.60;;;;;;5090913;28;20048;-80
2022/10/09 11:09:31;;;;;;;6.00;1.92;;;24.40;94.10;;;;;;5091549;28;20366;-80
2022/10/09 11:12:09;;;;;;;5.55;1.70;;;24.40;93.80;;;;;;5090153;28;20056;-80
2022/10/09 11:15:03;;;;;;;5.40;1.70;;;24.40;92.30;;;;;;5091358;28;20087;-78
2022/10/09 11:17:45;;;;;;;6.82;2.00;;;24.30;92.30;;;;;;5094791;28;20036;-79
2022/10/09 11:20:26;;;;;;;4.78;1.60;;;24.40;91.50;;;;;;5094850;28;20097;-80
2022/10/09 11:22:51;;;;;;;5.53;2.00;;;24.20;91.70;;;;;;5094386;28;20039;-80
2022/10/09 11:25:25;;;;;;;7.90;2.03;;;24.40;91.20;;;;;;5094610;28;20059;-79
2022/10/09 11:28:02;;;;;;;5.82;1.70;;;24.40;91.10;;;;;;5076385;28;20040;-80
2022/10/09 11:30:36;;;;;;;5.35;2.00;;;24.40;91.40;;;;;;5094480;28;20054;-79
2022/10/09 11:33:37;;;;;;;6.93;1.93;;;25.10;90.50;;;;;;5094205;28;20394;-80
2022/10/09 11:36:26;;;;;;;6.13;1.80;;;25.60;90.30;;;;;;5093990;28;20286;-79
2022/10/09 11:38:57;;;;;;;6.00;1.92;;;25.40;89.20;;;;;;5080385;28;20527;-79
2022/10/09 11:41:24;;;;;;;7.03;1.73;;;25.50;88.00;;;;;;5075974;28;20044;-80
2022/10/09 11:44:11;;;;;;;5.03;1.58;;;26.20;87.70;;;;;;5076453;28;20075;-80
2022/10/09 11:46:43;;;;;;;5.90;1.77;;;27.60;84.40;;;;;;5094254;28;20040;-80
2022/10/09 11:49:12;;;;;;;6.25;1.70;;;27.70;83.20;;;;;;5094307;28;20044;-80
2022/10/09 11:52:04;;;;;;;6.40;2.00;;;28.70;80.60;;;;;;5092844;28;20046;-80
2022/10/09 11:54:32;;;;;;;4.78;1.40;;;29.80;79.90;;;;;;5093870;28;20086;-80
2022/10/09 11:57:03;;;;;;;7.18;1.92;;;30.90;76.00;;;;;;5075771;28;20456;-80
2022/10/09 11:59:35;;;;;;;5.72;1.77;;;31.90;73.10;;;;;;5075785;28;20111;-80
2022/10/09 12:02:21;;;;;;;6.90;1.80;;;32.00;71.30;;;;;;5075373;28;20047;-79
2022/10/09 12:04:47;;;;;;;5.93;1.70;;;32.50;70.60;;;;;;5094083;28;20048;-79
2022/10/09 12:07:14;;;;;;;4.60;1.50;;;;;;;;;;5093436;28;20369;-79
2022/10/09 12:09:44;;;;;;;5.15;1.70;;;;;;;;;;5075843;28;20052;-78
2022/10/09 12:12:17;;;;;;;4.75;1.58;;;;;;;;;;5075749;28;20426;-78
2022/10/09 12:14:45;;;;;;;4.78;1.55;;;;;;;;;;5093990;28;20099;-79
2022/10/09 12:17:16;;;;;;;6.00;1.55;;;;;;;;;;5081490;28;20503;-78
2022/10/09 12:19:43;;;;;;;7.10;1.73;;;;;;;;;;5075381;28;20056;-78
2022/10/09 12:22:16;;;;;;;6.68;1.60;;;;;;;;;;5093133;28;20097;-78
2022/10/09 12:24:47;;;;;;;6.78;1.80;;;;;;;;;;5075836;28;20058;-79
2022/10/09 12:27:18;;;;;;;5.13;1.65;;;;;;;;;;5091987;28;20081;-79
2022/10/09 12:29:50;;;;;;;5.65;1.80;;;;;;;;;;5093203;28;20044;-79
2022/10/09 12:32:35;;;;;;;7.53;1.80;;;;;;;;;;5092919;28;20044;-79
2022/10/09 12:35:03;;;;;;;8.35;2.03;;;;;;;;;;5093278;28;20066;-79
2022/10/09 12:37:31;;;;;;;6.18;1.85;;;;;;;;;;5075116;28;20283;-78
2022/10/09 12:40:06;;;;;;;5.80;1.65;;;;;;;;;;5093325;28;20047;-79
2022/10/09 12:42:32;;;;;;;5.00;1.70;;;;;;;;;;5093003;28;20349;-79
2022/10/09 12:44:59;;;;;;;7.55;1.88;;;;;;;;;;5090950;28;20052;-78
2022/10/09 12:47:26;;;;;;;5.80;1.80;;;;;;;;;;5093132;28;20181;-79
2022/10/09 12:50:00;;;;;;;5.03;1.83;;;;;;;;;;5075030;28;20036;-79
2022/10/09 12:52:27;;;;;;;7.15;1.90;;;;;;;;;;5074055;28;20055;-78
2022/10/09 12:54:53;;;;;;;8.27;2.13;;;;;;;;;;5092881;28;20430;-79
2022/10/09 12:57:19;;;;;;;6.90;2.13;;;;;;;;;;5075493;28;20048;-79
2022/10/09 12:59:46;;;;;;;8.15;1.85;;;;;;;;;;5101314;28;20123;-77
2022/10/09 13:02:15;;;;;;;6.20;2.10;;;;;;;;;;5113131;28;20074;-78
2022/10/09 13:04:41;;;;;;;6.43;1.95;;;;;;;;;;5093752;28;20496;-78
2022/10/09 13:07:18;;;;;;;6.63;1.70;;;;;;;;;;5092460;28;20051;-82
2022/10/09 13:09:45;;;;;;;7.18;2.08;;;32.70;68.20;;;;;;5082164;28;20048;-81
2022/10/09 13:12:23;;;;;;;5.38;1.70;;;21.30;82.50;;;;;;5090503;28;20040;-82
2022/10/09 13:15:02;;;;;;;5.80;1.83;;;20.80;82.40;;;;;;5088891;28;20042;-79
2022/10/09 13:17:35;;;;;;;5.88;1.98;;;20.70;81.80;;;;;;5072250;28;20071;-78
2022/10/09 13:20:23;;;;;;;7.43;2.35;;;20.50;82.40;;;;;;5074327;28;20056;-76
2022/10/09 13:22:57;;;;;;;7.32;2.20;;;20.50;82.80;;;;;;5091893;28;20237;-79
2022/10/09 13:25:29;;;;;;;6.07;2.00;;;;;;;;;;5074056;28;20083;-79
2022/10/09 13:27:55;;;;;;;7.90;2.10;;;;;;;;;;5092645;28;20302;-88